Kansas City, Missouri
Traffic Map
Current Weather Conditions
Kansas City, Missouri
Clear
Clear
86°
Feels Like: 87°
Wind Chill: 86° Ceiling: Unl
Heat Index: 87° Visibility: 10mi
Dew Point: 64° Wind: 7mph
Humidity: 48% Direction: 130° (SE)
Pressure: 30.11in Gusts: 0mph
Raw Report DataKMKC 282154Z 13006KT 10SM CLR 30/18 A3011 RMK AO2 SLP187 T03000178
Traffic Incident Summary
Active as of:
Severity:
Category:
InformationThere was an issue retrieving the traffic information for this location. Please try a different location or try again shortly.
Advertisements
Track Severe Weather on mobile